createdAt,value
2022-09-17T00:00:01.114Z,98128.80
2022-09-17T00:00:34.483Z,98126.45
2022-09-17T00:01:28.804Z,98127.81
2022-09-17T00:02:02.646Z,98128.27
2022-09-17T00:02:36.156Z,98126.80
2022-09-17T00:03:10.016Z,98131.60
2022-09-17T00:03:44.045Z,98128.14
2022-09-17T00:04:17.150Z,98129.88
2022-09-17T00:04:50.525Z,98130.27
2022-09-17T00:05:24.515Z,98132.98
2022-09-17T00:06:06.837Z,98132.98
2022-09-17T00:06:39.996Z,98136.81
2022-09-17T00:07:13.226Z,98137.79
2022-09-17T00:07:46.554Z,98135.27
2022-09-17T00:08:19.668Z,98137.89
2022-09-17T00:08:54.898Z,98135.66
2022-09-17T00:09:28.393Z,98135.52
2022-09-17T00:10:01.359Z,98132.23
2022-09-17T00:10:39.929Z,98135.20
2022-09-17T00:11:16.836Z,98136.62
2022-09-17T00:11:50.064Z,98137.23
2022-09-17T00:12:23.327Z,98138.50
2022-09-17T00:12:56.688Z,98143.41
2022-09-17T00:13:29.850Z,98142.16
2022-09-17T00:14:05.836Z,98141.29
2022-09-17T00:14:40.882Z,98142.95
2022-09-17T00:15:14.345Z,98146.58
2022-09-17T00:15:48.215Z,98143.91
2022-09-17T00:16:29.454Z,98144.66
2022-09-17T00:17:02.757Z,98148.19
2022-09-17T00:17:35.849Z,98147.44
2022-09-17T00:18:09.239Z,98144.85
2022-09-17T00:18:42.431Z,98146.30
2022-09-17T00:19:23.124Z,98143.35
2022-09-17T00:19:56.939Z,98145.10
2022-09-17T00:20:30.134Z,98147.14
2022-09-17T00:21:04.381Z,98147.30
2022-09-17T00:21:37.521Z,98146.45
2022-09-17T00:22:10.592Z,98144.89
2022-09-17T00:22:43.671Z,98145.69
2022-09-17T00:23:16.903Z,98143.21
2022-09-17T00:23:54.365Z,98146.98
2022-09-17T00:24:27.672Z,98143.38
2022-09-17T00:25:00.781Z,98139.95
2022-09-17T00:25:33.896Z,98140.20
2022-09-17T00:26:07.352Z,98139.80
2022-09-17T00:26:40.675Z,98139.15
2022-09-17T00:27:13.879Z,98139.84
2022-09-17T00:27:47.527Z,98139.79
2022-09-17T00:28:20.849Z,98141.55
2022-09-17T00:28:55.313Z,98142.28
2022-09-17T00:29:28.517Z,98142.80
2022-09-17T00:30:01.715Z,98145.38
2022-09-17T00:30:35.233Z,98143.52
2022-09-17T00:31:10.144Z,98146.04
2022-09-17T00:31:43.492Z,98147.88
2022-09-17T00:32:16.606Z,98147.42
2022-09-17T00:32:49.795Z,98144.47
2022-09-17T00:33:23.003Z,98145.25
2022-09-17T00:33:57.166Z,98143.41
2022-09-17T00:34:30.424Z,98142.73
2022-09-17T00:35:03.659Z,98142.77
2022-09-17T00:35:37.060Z,98141.02
2022-09-17T00:36:10.159Z,98138.14
2022-09-17T00:36:43.258Z,98136.18
2022-09-17T00:37:16.760Z,98136.62
2022-09-17T00:37:49.930Z,98137.45
2022-09-17T00:38:22.984Z,98138.65
2022-09-17T00:38:58.797Z,98139.92
2022-09-17T00:39:32.117Z,98142.23
2022-09-17T00:40:05.578Z,98140.70
2022-09-17T00:40:39.360Z,98144.12
2022-09-17T00:41:12.598Z,98146.60
2022-09-17T00:41:45.762Z,98143.80
2022-09-17T00:42:19.556Z,98147.91
2022-09-17T00:42:53.656Z,98146.48
2022-09-17T00:43:48.347Z,98146.69
2022-09-17T00:44:51.055Z,98148.69
2022-09-17T00:45:25.380Z,98145.38
2022-09-17T00:45:58.815Z,98146.77
2022-09-17T00:46:35.435Z,98145.23
2022-09-17T00:47:20.079Z,98141.76
2022-09-17T00:48:05.816Z,98140.55
2022-09-17T00:48:39.579Z,98144.89
2022-09-17T00:49:28.844Z,98141.98
2022-09-17T00:50:04.704Z,98146.44
2022-09-17T00:50:43.870Z,98149.26
2022-09-17T00:51:23.351Z,98153.04
2022-09-17T00:52:10.114Z,98150.55
2022-09-17T00:52:52.772Z,98150.33
2022-09-17T00:53:26.019Z,98142.84
2022-09-17T00:54:02.044Z,98142.03
2022-09-17T00:54:39.247Z,98142.61
2022-09-17T00:55:24.392Z,98140.82
2022-09-17T00:56:11.981Z,98141.11
2022-09-17T00:56:45.140Z,98142.47
2022-09-17T00:57:18.678Z,98142.73
2022-09-17T00:57:55.432Z,98142.74
2022-09-17T00:58:31.719Z,98140.63
2022-09-17T00:59:05.417Z,98144.69
2022-09-17T00:59:38.833Z,98140.57
2022-09-17T01:00:14.661Z,98140.15
2022-09-17T01:00:47.734Z,98141.32
2022-09-17T01:01:21.049Z,98140.58
2022-09-17T01:01:54.476Z,98144.15
2022-09-17T01:02:27.721Z,98141.99
2022-09-17T01:03:01.729Z,98140.89
2022-09-17T01:03:35.124Z,98141.78
2022-09-17T01:04:17.355Z,98140.08
2022-09-17T01:04:51.549Z,98139.19
2022-09-17T01:06:02.691Z,98141.27
2022-09-17T01:07:06.908Z,98140.62
2022-09-17T01:08:03.214Z,98141.22
2022-09-17T01:09:11.751Z,98146.77
2022-09-17T01:10:01.365Z,98150.98
2022-09-17T01:11:03.151Z,98150.63
2022-09-17T01:12:24.109Z,98150.88
2022-09-17T01:13:07.696Z,98145.89
2022-09-17T01:14:00.184Z,98144.80
2022-09-17T01:14:45.046Z,98140.63
2022-09-17T01:15:26.251Z,98140.09
2022-09-17T01:15:59.208Z,98140.73
2022-09-17T01:16:32.445Z,98138.83
2022-09-17T01:17:20.518Z,98140.05
2022-09-17T01:18:05.477Z,98136.89
2022-09-17T01:18:47.727Z,98142.91
2022-09-17T01:19:42.980Z,98143.89
2022-09-17T01:21:01.189Z,98144.42
2022-09-17T01:21:48.366Z,98145.13
2022-09-17T01:22:27.129Z,98144.56
2022-09-17T01:23:28.123Z,98145.22
2022-09-17T01:24:16.669Z,98140.01
2022-09-17T01:24:58.776Z,98138.52
2022-09-17T01:26:04.744Z,98141.63
2022-09-17T01:26:53.076Z,98147.46
2022-09-17T01:27:29.934Z,98140.48
2022-09-17T01:28:47.203Z,98145.23
2022-09-17T01:29:57.238Z,98141.18
2022-09-17T01:30:39.284Z,98141.94
2022-09-17T01:31:59.129Z,98143.36
2022-09-17T01:32:38.025Z,98140.73
2022-09-17T01:33:11.193Z,98139.55
2022-09-17T01:34:08.677Z,98136.27
2022-09-17T01:35:27.372Z,98137.65
2022-09-17T01:36:00.485Z,98139.08
2022-09-17T01:36:59.656Z,98140.61
2022-09-17T01:37:46.184Z,98138.55
2022-09-17T01:38:37.988Z,98134.34
2022-09-17T01:39:31.175Z,98136.23
2022-09-17T01:40:26.176Z,98137.14
2022-09-17T01:41:09.031Z,98136.48
2022-09-17T01:41:51.739Z,98139.50
2022-09-17T01:42:32.779Z,98138.29
2022-09-17T01:43:18.123Z,98137.66
2022-09-17T01:43:58.135Z,98136.89
2022-09-17T01:45:00.434Z,98132.23
2022-09-17T01:45:48.280Z,98128.16
2022-09-17T01:46:32.679Z,98130.59
2022-09-17T01:47:20.882Z,98128.83
2022-09-17T01:48:03.200Z,98132.58
2022-09-17T01:48:43.419Z,98133.16
2022-09-17T01:49:18.314Z,98133.84
2022-09-17T01:49:55.929Z,98131.89
2022-09-17T01:50:33.941Z,98130.30
2022-09-17T01:51:09.505Z,98127.27
2022-09-17T01:51:47.111Z,98126.22
2022-09-17T01:52:21.566Z,98119.46
2022-09-17T01:52:57.032Z,98119.17
2022-09-17T01:53:44.361Z,98116.30
2022-09-17T01:54:23.989Z,98116.67
2022-09-17T01:55:02.168Z,98114.48
2022-09-17T01:55:39.734Z,98116.42
2022-09-17T01:56:17.560Z,98117.43
2022-09-17T01:57:18.673Z,98121.21
2022-09-17T01:57:58.630Z,98120.73
2022-09-17T01:58:40.627Z,98124.91
2022-09-17T01:59:22.070Z,98126.10
2022-09-17T02:00:22.385Z,98125.84
2022-09-17T02:01:03.656Z,98133.58
2022-09-17T02:01:42.605Z,98134.97
2022-09-17T02:02:25.726Z,98131.60
2022-09-17T02:03:09.099Z,98131.35
2022-09-17T02:03:53.997Z,98132.96
2022-09-17T02:04:30.832Z,98126.69
2022-09-17T02:05:12.581Z,98124.59
2022-09-17T02:06:09.819Z,98118.95
2022-09-17T02:06:49.470Z,98119.27
2022-09-17T02:07:26.096Z,98116.69
2022-09-17T02:08:17.064Z,98115.02
2022-09-17T02:09:07.288Z,98116.80
2022-09-17T02:09:56.260Z,98113.08
2022-09-17T02:10:34.800Z,98115.83
2022-09-17T02:11:17.416Z,98116.61
2022-09-17T02:11:55.843Z,98120.60
2022-09-17T02:12:35.421Z,98117.64
2022-09-17T02:13:17.142Z,98116.42
2022-09-17T02:14:03.293Z,98120.73
2022-09-17T02:15:11.623Z,98119.20
2022-09-17T02:15:51.517Z,98128.00
2022-09-17T02:16:32.984Z,98128.04
2022-09-17T02:17:13.153Z,98131.36
2022-09-17T02:17:57.660Z,98135.59
2022-09-17T02:18:38.668Z,98138.99
2022-09-17T02:19:21.173Z,98144.80
2022-09-17T02:19:56.494Z,98147.80
2022-09-17T02:20:41.806Z,98149.22
2022-09-17T02:21:27.294Z,98147.16
2022-09-17T02:22:32.498Z,98146.63
2022-09-17T02:23:13.829Z,98148.63
2022-09-17T02:24:09.366Z,98151.84
2022-09-17T02:24:53.035Z,98152.09
2022-09-17T02:25:29.370Z,98154.39
2022-09-17T02:26:13.002Z,98153.54
2022-09-17T02:27:15.278Z,98155.48
2022-09-17T02:27:57.458Z,98155.30
2022-09-17T02:29:03.671Z,98151.29
2022-09-17T02:29:43.806Z,98151.35
2022-09-17T02:30:17.493Z,98151.41
2022-09-17T02:30:50.905Z,98151.74
2022-09-17T02:31:24.144Z,98150.35
2022-09-17T02:31:57.421Z,98147.82
2022-09-17T02:32:30.585Z,98148.10
2022-09-17T02:33:07.586Z,98147.90
2022-09-17T02:33:43.889Z,98144.23
2022-09-17T02:34:17.216Z,98141.54
2022-09-17T02:34:50.797Z,98139.45
2022-09-17T02:35:24.179Z,98136.40
2022-09-17T02:35:57.324Z,98134.58
2022-09-17T02:36:32.433Z,98135.70
2022-09-17T02:37:06.785Z,98132.61
2022-09-17T02:37:41.508Z,98131.92
2022-09-17T02:38:26.750Z,98131.19
2022-09-17T02:39:02.019Z,98129.29
2022-09-17T02:39:35.456Z,98128.67
2022-09-17T02:40:11.151Z,98124.27
2022-09-17T02:40:55.287Z,98121.61
2022-09-17T02:42:22.746Z,98117.18
2022-09-17T02:43:16.662Z,98115.36
2022-09-17T02:44:05.444Z,98112.69
2022-09-17T02:44:45.108Z,98115.13
2022-09-17T02:45:46.455Z,98122.91
2022-09-17T02:46:34.793Z,98124.21
2022-09-17T02:47:38.075Z,98128.98
2022-09-17T02:48:24.795Z,98128.25
2022-09-17T02:49:15.885Z,98126.39
2022-09-17T02:49:59.208Z,98125.27
2022-09-17T02:50:41.297Z,98122.88
2022-09-17T02:51:36.377Z,98121.64
2022-09-17T02:52:45.061Z,98118.91
2022-09-17T02:54:03.081Z,98120.23
2022-09-17T02:54:36.051Z,98125.30
2022-09-17T02:55:21.071Z,98127.35
2022-09-17T02:56:10.956Z,98129.48
2022-09-17T02:56:55.223Z,98130.98
2022-09-17T02:57:38.006Z,98130.89
2022-09-17T02:58:27.407Z,98131.42
2022-09-17T02:59:14.359Z,98129.95
2022-09-17T03:00:05.026Z,98128.51
2022-09-17T03:00:39.144Z,98128.16
2022-09-17T03:01:25.910Z,98126.66
2022-09-17T03:02:02.560Z,98129.13
2022-09-17T03:02:56.497Z,98127.61
2022-09-17T03:03:38.126Z,98126.39
2022-09-17T03:04:16.341Z,98126.09
2022-09-17T03:04:50.708Z,98123.19
2022-09-17T03:05:25.441Z,98126.77
2022-09-17T03:06:00.401Z,98128.30
2022-09-17T03:06:33.513Z,98131.34
2022-09-17T03:07:15.175Z,98134.30
2022-09-17T03:07:48.307Z,98136.52
2022-09-17T03:08:30.210Z,98136.99
2022-09-17T03:09:03.962Z,98142.05
2022-09-17T03:09:36.959Z,98142.69
2022-09-17T03:10:10.060Z,98142.80
2022-09-17T03:10:43.502Z,98141.42
2022-09-17T03:11:16.659Z,98143.29
2022-09-17T03:11:49.764Z,98141.91
2022-09-17T03:12:24.772Z,98143.61
2022-09-17T03:12:58.050Z,98141.85
2022-09-17T03:13:31.803Z,98138.84
2022-09-17T03:14:05.025Z,98138.84
2022-09-17T03:14:38.175Z,98138.48
2022-09-17T03:15:11.380Z,98136.69
2022-09-17T03:15:44.478Z,98138.06
2022-09-17T03:16:18.281Z,98137.65
2022-09-17T03:16:51.608Z,98141.29
2022-09-17T03:17:24.745Z,98137.70
2022-09-17T03:17:57.945Z,98135.64
2022-09-17T03:18:31.876Z,98141.64
2022-09-17T03:19:04.926Z,98138.34
2022-09-17T03:19:38.224Z,98136.39
2022-09-17T03:20:11.758Z,98134.73
2022-09-17T03:20:46.746Z,98138.16
2022-09-17T03:21:19.922Z,98136.73
2022-09-17T03:21:53.078Z,98138.42
2022-09-17T03:22:26.578Z,98134.63
2022-09-17T03:22:59.706Z,98135.60
2022-09-17T03:23:33.186Z,98135.61
2022-09-17T03:24:06.451Z,98139.83
2022-09-17T03:24:39.830Z,98139.30
2022-09-17T03:25:13.297Z,98138.61
2022-09-17T03:25:47.243Z,98140.30
2022-09-17T03:26:20.430Z,98141.31
2022-09-17T03:26:53.524Z,98139.20
2022-09-17T03:27:26.590Z,98138.68
2022-09-17T03:27:59.747Z,98138.33
2022-09-17T03:28:32.964Z,98136.86
2022-09-17T03:29:06.457Z,98137.71
2022-09-17T03:29:39.565Z,98131.27
2022-09-17T03:30:12.795Z,98132.08
2022-09-17T03:30:46.218Z,98131.14
2022-09-17T03:31:19.355Z,98133.47
2022-09-17T03:31:52.458Z,98135.48
2022-09-17T03:32:25.926Z,98135.02
2022-09-17T03:32:59.326Z,98133.02
2022-09-17T03:33:33.485Z,98133.38
2022-09-17T03:34:07.626Z,98133.83
2022-09-17T03:34:40.840Z,98133.78
2022-09-17T03:35:13.947Z,98132.68
2022-09-17T03:35:48.111Z,98134.14
2022-09-17T03:36:21.474Z,98132.94
2022-09-17T03:36:54.559Z,98129.75
2022-09-17T03:37:32.249Z,98129.04
2022-09-17T03:38:06.190Z,98125.79
2022-09-17T03:38:39.342Z,98125.56
2022-09-17T03:39:13.353Z,98124.80
2022-09-17T03:39:46.681Z,98123.20
2022-09-17T03:40:20.225Z,98127.27
2022-09-17T03:41:07.444Z,98128.21
2022-09-17T03:41:40.831Z,98129.04
2022-09-17T03:42:13.948Z,98126.87
2022-09-17T03:42:47.139Z,98130.20
2022-09-17T03:43:20.203Z,98131.88
2022-09-17T03:43:54.117Z,98128.58
2022-09-17T03:44:27.192Z,98127.59
2022-09-17T03:45:00.471Z,98130.76
2022-09-17T03:45:33.662Z,98131.61
2022-09-17T03:46:06.926Z,98130.39
2022-09-17T03:46:40.133Z,98131.57
2022-09-17T03:47:13.238Z,98127.77
2022-09-17T03:47:46.359Z,98127.61
2022-09-17T03:48:19.523Z,98128.18
2022-09-17T03:48:52.625Z,98123.77
2022-09-17T03:49:25.901Z,98125.14
2022-09-17T03:49:59.084Z,98124.83
2022-09-17T03:50:32.534Z,98122.13
2022-09-17T03:51:06.849Z,98121.02
2022-09-17T03:51:40.060Z,98120.91
2022-09-17T03:52:13.163Z,98121.65
2022-09-17T03:52:46.279Z,98124.02
2022-09-17T03:53:19.603Z,98123.33
2022-09-17T03:53:52.768Z,98119.84
2022-09-17T03:54:26.157Z,98123.48
2022-09-17T03:54:59.368Z,98120.44
2022-09-17T03:55:32.733Z,98118.70
2022-09-17T03:56:07.103Z,98119.18
2022-09-17T03:56:40.184Z,98120.48
2022-09-17T03:57:13.243Z,98120.48
2022-09-17T03:57:46.452Z,98120.00
2022-09-17T03:58:19.605Z,98120.00
2022-09-17T03:58:52.811Z,98119.35
2022-09-17T03:59:26.446Z,98123.20
2022-09-17T03:59:59.905Z,98119.64
2022-09-17T04:00:33.633Z,98117.70
2022-09-17T04:01:06.739Z,98117.70
2022-09-17T04:01:39.997Z,98118.17
2022-09-17T04:02:13.352Z,98117.73
2022-09-17T04:02:46.588Z,98114.26
2022-09-17T04:03:20.206Z,98112.89
2022-09-17T04:03:53.858Z,98118.27
2022-09-17T04:04:27.251Z,98115.73
2022-09-17T04:05:00.644Z,98120.18
2022-09-17T04:05:34.072Z,98116.82
2022-09-17T04:06:07.354Z,98120.27
2022-09-17T04:06:40.561Z,98120.15
2022-09-17T04:07:13.714Z,98120.17
2022-09-17T04:07:46.913Z,98117.31
2022-09-17T04:08:20.995Z,98116.46
2022-09-17T04:08:54.257Z,98116.05
2022-09-17T04:09:27.482Z,98115.86
2022-09-17T04:10:00.700Z,98115.29
2022-09-17T04:10:35.073Z,98116.84
2022-09-17T04:11:08.910Z,98117.95
2022-09-17T04:11:42.089Z,98118.05
2022-09-17T04:12:15.730Z,98119.79
2022-09-17T04:12:48.745Z,98120.00
2022-09-17T04:13:22.231Z,98122.73
2022-09-17T04:13:55.327Z,98122.93
2022-09-17T04:14:28.544Z,98122.20
2022-09-17T04:15:01.631Z,98122.00
2022-09-17T04:15:34.930Z,98121.55
2022-09-17T04:16:08.224Z,98120.10
2022-09-17T04:16:41.398Z,98121.25
2022-09-17T04:17:18.528Z,98119.23
2022-09-17T04:17:51.791Z,98117.04
2022-09-17T04:18:25.043Z,98119.56
2022-09-17T04:18:58.076Z,98117.93
2022-09-17T04:19:31.112Z,98119.27
2022-09-17T04:20:06.532Z,98117.47
2022-09-17T04:20:40.136Z,98114.23
2022-09-17T04:21:13.340Z,98117.83
2022-09-17T04:21:47.070Z,98119.40
2022-09-17T04:22:20.173Z,98120.73
2022-09-17T04:22:53.885Z,98124.54
2022-09-17T04:23:27.081Z,98124.42
2022-09-17T04:24:00.458Z,98125.81
2022-09-17T04:24:33.581Z,98129.75
2022-09-17T04:25:07.527Z,98128.14
2022-09-17T04:25:41.076Z,98124.70
2022-09-17T04:26:14.885Z,98126.89
2022-09-17T04:26:48.075Z,98129.99
2022-09-17T04:27:21.595Z,98127.94
2022-09-17T04:27:55.221Z,98129.10
2022-09-17T04:28:28.582Z,98127.99
2022-09-17T04:29:01.873Z,98124.80
2022-09-17T04:29:35.058Z,98129.73
2022-09-17T04:30:08.713Z,98127.30
2022-09-17T04:30:43.542Z,98125.26
2022-09-17T04:31:16.900Z,98124.30
2022-09-17T04:31:50.196Z,98124.89
2022-09-17T04:32:23.516Z,98126.92
2022-09-17T04:32:56.794Z,98124.64
2022-09-17T04:33:30.061Z,98128.77
2022-09-17T04:34:03.031Z,98129.86
2022-09-17T04:34:36.324Z,98129.41
2022-09-17T04:35:09.759Z,98134.75
2022-09-17T04:35:43.755Z,98133.13
2022-09-17T04:36:17.650Z,98136.50
2022-09-17T04:36:50.812Z,98133.70
2022-09-17T04:37:26.239Z,98135.98
2022-09-17T04:37:59.495Z,98136.08
2022-09-17T04:38:33.885Z,98136.92
2022-09-17T04:39:07.251Z,98137.08
2022-09-17T04:39:40.725Z,98133.34
2022-09-17T04:40:14.021Z,98134.16
2022-09-17T04:40:47.348Z,98133.67
2022-09-17T04:41:20.753Z,98131.73
2022-09-17T04:41:53.857Z,98132.27
2022-09-17T04:42:27.079Z,98133.88
2022-09-17T04:43:03.268Z,98132.88
2022-09-17T04:43:36.540Z,98131.89
2022-09-17T04:44:09.817Z,98133.47
2022-09-17T04:44:43.143Z,98132.79
2022-09-17T04:45:16.498Z,98133.54
2022-09-17T04:45:51.027Z,98133.71
2022-09-17T04:46:24.188Z,98132.18
2022-09-17T04:46:57.526Z,98130.05
2022-09-17T04:47:31.043Z,98127.65
2022-09-17T04:48:05.124Z,98127.46
2022-09-17T04:48:38.336Z,98126.98
2022-09-17T04:49:11.783Z,98124.55
2022-09-17T04:49:45.226Z,98126.28
2022-09-17T04:50:19.770Z,98128.67
2022-09-17T04:50:53.057Z,98130.44
2022-09-17T04:51:26.336Z,98127.24
2022-09-17T04:51:59.612Z,98126.92
2022-09-17T04:52:33.883Z,98124.41
2022-09-17T04:53:07.035Z,98122.90
2022-09-17T04:53:40.661Z,98125.33
2022-09-17T04:54:15.056Z,98121.95
2022-09-17T04:54:48.211Z,98124.34
2022-09-17T04:55:21.418Z,98125.46
2022-09-17T04:55:54.957Z,98127.81
2022-09-17T04:56:28.095Z,98129.05
2022-09-17T04:57:01.528Z,98130.27
2022-09-17T04:57:34.925Z,98129.30
2022-09-17T04:58:08.192Z,98131.13
2022-09-17T04:58:42.311Z,98131.23
2022-09-17T04:59:15.514Z,98131.88
2022-09-17T04:59:48.684Z,98130.40
2022-09-17T05:00:23.601Z,98128.20
2022-09-17T05:00:56.949Z,98130.33
2022-09-17T05:01:30.254Z,98126.11
2022-09-17T05:02:03.590Z,98128.90
2022-09-17T05:02:36.987Z,98128.42
2022-09-17T05:03:10.169Z,98127.99
2022-09-17T05:03:43.597Z,98126.20
2022-09-17T05:04:16.887Z,98126.30
2022-09-17T05:04:51.005Z,98123.02
2022-09-17T05:05:24.582Z,98126.55
2022-09-17T05:05:57.842Z,98123.92
2022-09-17T05:06:31.216Z,98123.77
2022-09-17T05:07:04.579Z,98120.71
2022-09-17T05:07:41.788Z,98121.19
2022-09-17T05:08:15.111Z,98118.08
2022-09-17T05:08:48.361Z,98119.13
2022-09-17T05:09:21.640Z,98117.32
2022-09-17T05:09:54.961Z,98118.29
2022-09-17T05:10:28.269Z,98120.88
2022-09-17T05:11:01.865Z,98119.86
2022-09-17T05:11:34.911Z,98123.58
2022-09-17T05:12:08.424Z,98120.70
2022-09-17T05:12:41.800Z,98123.98
2022-09-17T05:13:14.927Z,98122.83
2022-09-17T05:13:48.169Z,98125.06
2022-09-17T05:14:21.424Z,98123.95
2022-09-17T05:14:54.558Z,98124.85
2022-09-17T05:15:28.420Z,98125.34
2022-09-17T05:16:01.979Z,98121.00
2022-09-17T05:16:35.321Z,98122.73
2022-09-17T05:17:08.696Z,98124.52
2022-09-17T05:17:41.918Z,98125.42
2022-09-17T05:18:15.081Z,98122.78
2022-09-17T05:18:50.003Z,98125.23
2022-09-17T05:19:23.219Z,98125.10
2022-09-17T05:19:56.323Z,98125.15
2022-09-17T05:20:30.064Z,98126.64
2022-09-17T05:21:03.266Z,98128.40
2022-09-17T05:21:36.501Z,98130.10
2022-09-17T05:22:09.656Z,98129.86
2022-09-17T05:22:47.626Z,98127.79
2022-09-17T05:23:21.273Z,98129.60
2022-09-17T05:23:54.878Z,98126.14
2022-09-17T05:24:28.057Z,98127.81
2022-09-17T05:25:01.376Z,98128.41
2022-09-17T05:25:35.948Z,98125.77
2022-09-17T05:26:09.098Z,98123.98
2022-09-17T05:26:42.167Z,98131.26
2022-09-17T05:27:15.498Z,98129.83
2022-09-17T05:27:48.807Z,98130.80
2022-09-17T05:28:22.046Z,98136.33
2022-09-17T05:28:55.550Z,98133.12
2022-09-17T05:29:28.840Z,98140.45
2022-09-17T05:30:02.014Z,98137.98
2022-09-17T05:30:35.437Z,98140.63
2022-09-17T05:31:08.864Z,98143.63
2022-09-17T05:31:42.261Z,98146.48
2022-09-17T05:32:16.202Z,98144.27
2022-09-17T05:32:49.901Z,98145.92
2022-09-17T05:33:23.346Z,98147.17
2022-09-17T05:33:58.691Z,98146.08
2022-09-17T05:34:31.771Z,98147.89
2022-09-17T05:35:06.166Z,98150.92
2022-09-17T05:35:39.771Z,98149.17
2022-09-17T05:36:12.991Z,98150.33
2022-09-17T05:36:46.051Z,98145.71
2022-09-17T05:37:19.094Z,98149.56
2022-09-17T05:37:52.224Z,98145.83
2022-09-17T05:38:25.605Z,98144.25
2022-09-17T05:38:58.997Z,98145.41
2022-09-17T05:39:33.312Z,98143.02
2022-09-17T05:40:08.454Z,98141.42
2022-09-17T05:40:41.798Z,98140.63
2022-09-17T05:41:14.883Z,98140.83
2022-09-17T05:41:48.618Z,98142.20
2022-09-17T05:42:21.982Z,98144.20
2022-09-17T05:43:02.745Z,98142.77
2022-09-17T05:43:37.015Z,98145.81
2022-09-17T05:44:11.401Z,98146.83
2022-09-17T05:44:47.031Z,98147.34
2022-09-17T05:45:20.153Z,98146.52
2022-09-17T05:45:54.658Z,98142.83
2022-09-17T05:46:28.007Z,98142.63
2022-09-17T05:47:01.862Z,98142.33
2022-09-17T05:47:35.717Z,98142.48
2022-09-17T05:48:13.319Z,98139.95
2022-09-17T05:48:46.382Z,98139.86
2022-09-17T05:49:19.458Z,98140.88
2022-09-17T05:49:52.605Z,98141.06
2022-09-17T05:50:26.743Z,98142.88
2022-09-17T05:50:59.856Z,98138.66
2022-09-17T05:51:33.007Z,98137.85
2022-09-17T05:52:06.187Z,98138.40
2022-09-17T05:52:39.465Z,98141.15
2022-09-17T05:53:14.067Z,98139.41
2022-09-17T05:53:47.898Z,98135.14
2022-09-17T05:54:21.095Z,98135.61
2022-09-17T05:54:54.287Z,98136.93
2022-09-17T05:55:28.099Z,98133.67
2022-09-17T05:56:02.995Z,98133.67
2022-09-17T05:56:36.241Z,98133.02
2022-09-17T05:57:09.488Z,98131.79
2022-09-17T05:57:42.687Z,98134.66
2022-09-17T05:58:19.945Z,98133.27
2022-09-17T05:58:57.122Z,98132.31
2022-09-17T05:59:30.174Z,98133.73
2022-09-17T06:00:05.006Z,98130.24
2022-09-17T06:00:39.148Z,98132.35
2022-09-17T06:01:16.475Z,98133.34
2022-09-17T06:01:51.247Z,98129.89
2022-09-17T06:02:24.492Z,98129.17
2022-09-17T06:02:58.355Z,98130.77
2022-09-17T06:03:31.729Z,98126.70
2022-09-17T06:04:05.187Z,98121.17
2022-09-17T06:04:38.432Z,98124.21
2022-09-17T06:05:11.786Z,98125.20
2022-09-17T06:05:56.781Z,98126.73
2022-09-17T06:06:31.201Z,98126.64
2022-09-17T06:07:09.611Z,98124.48
2022-09-17T06:07:42.920Z,98128.41
2022-09-17T06:08:16.099Z,98129.27
2022-09-17T06:08:49.342Z,98126.79
2022-09-17T06:09:22.549Z,98124.98
2022-09-17T06:09:55.627Z,98127.33
2022-09-17T06:10:28.850Z,98127.42
2022-09-17T06:11:05.991Z,98128.63
2022-09-17T06:11:39.915Z,98125.78
2022-09-17T06:12:13.263Z,98129.18
2022-09-17T06:12:46.278Z,98134.28
2022-09-17T06:13:20.775Z,98133.77
2022-09-17T06:13:55.124Z,98133.94
2022-09-17T06:14:28.242Z,98135.75
2022-09-17T06:15:02.101Z,98140.13
2022-09-17T06:15:35.287Z,98138.66
2022-09-17T06:16:08.534Z,98138.94
2022-09-17T06:16:41.903Z,98140.11
2022-09-17T06:17:19.024Z,98142.50
2022-09-17T06:17:55.146Z,98143.83
2022-09-17T06:18:30.356Z,98142.93
2022-09-17T06:19:04.571Z,98144.11
2022-09-17T06:19:37.915Z,98148.49
2022-09-17T06:20:11.299Z,98148.66
2022-09-17T06:20:53.148Z,98151.94
2022-09-17T06:21:26.267Z,98153.73
2022-09-17T06:21:59.474Z,98154.50
2022-09-17T06:22:32.970Z,98152.43
2022-09-17T06:23:06.110Z,98153.45
2022-09-17T06:23:39.228Z,98157.04
2022-09-17T06:24:12.638Z,98154.03
2022-09-17T06:24:46.189Z,98152.84
2022-09-17T06:25:19.372Z,98151.61
2022-09-17T06:25:53.353Z,98150.70
2022-09-17T06:26:26.549Z,98150.45
2022-09-17T06:26:59.959Z,98149.34
2022-09-17T06:27:34.474Z,98146.98
2022-09-17T06:28:07.603Z,98143.50
2022-09-17T06:28:41.987Z,98145.73
2022-09-17T06:29:16.486Z,98143.86
2022-09-17T06:29:49.811Z,98145.49
2022-09-17T06:30:23.130Z,98144.23
2022-09-17T06:31:05.143Z,98144.98
2022-09-17T06:31:38.403Z,98150.37
2022-09-17T06:32:13.431Z,98147.98
2022-09-17T06:32:46.654Z,98145.21
2022-09-17T06:33:21.046Z,98147.31
2022-09-17T06:33:58.569Z,98150.48
2022-09-17T06:34:32.168Z,98149.33
2022-09-17T06:35:05.824Z,98149.06
2022-09-17T06:35:39.081Z,98147.84
2022-09-17T06:36:14.442Z,98149.77
2022-09-17T06:36:50.130Z,98148.09
2022-09-17T06:37:31.656Z,98144.27
2022-09-17T06:38:06.089Z,98139.23
2022-09-17T06:38:40.002Z,98137.88
2022-09-17T06:39:13.824Z,98133.25
2022-09-17T06:39:47.144Z,98132.80
2022-09-17T06:40:20.329Z,98132.25
2022-09-17T06:40:53.773Z,98131.73
2022-09-17T06:41:27.579Z,98132.88
2022-09-17T06:42:00.837Z,98132.21
2022-09-17T06:42:34.105Z,98132.90
2022-09-17T06:43:07.733Z,98134.46
2022-09-17T06:43:41.015Z,98137.34
2022-09-17T06:44:14.535Z,98137.93
2022-09-17T06:44:48.288Z,98136.99
2022-09-17T06:45:21.432Z,98138.80
2022-09-17T06:45:56.931Z,98135.61
2022-09-17T06:46:30.211Z,98141.48
2022-09-17T06:47:03.295Z,98141.89
2022-09-17T06:47:36.510Z,98145.99
2022-09-17T06:48:09.585Z,98144.29
2022-09-17T06:48:43.108Z,98146.12
2022-09-17T06:49:18.099Z,98144.17
2022-09-17T06:49:51.980Z,98144.48
2022-09-17T06:50:25.865Z,98144.85
2022-09-17T06:51:06.595Z,98145.25
2022-09-17T06:51:39.939Z,98142.52
2022-09-17T06:52:13.330Z,98140.05
2022-09-17T06:52:53.656Z,98142.94
2022-09-17T06:53:26.777Z,98145.02
2022-09-17T06:54:00.073Z,98145.22
2022-09-17T06:54:33.914Z,98145.65
2022-09-17T06:55:07.520Z,98148.81
2022-09-17T06:55:41.202Z,98147.60
2022-09-17T06:56:14.928Z,98150.67
2022-09-17T06:56:48.304Z,98147.36
2022-09-17T06:57:21.501Z,98149.56
2022-09-17T06:57:54.736Z,98152.15
2022-09-17T06:58:30.169Z,98154.32
2022-09-17T06:59:03.906Z,98154.80
2022-09-17T06:59:37.106Z,98150.97
2022-09-17T07:00:11.308Z,98152.01
2022-09-17T07:00:45.186Z,98149.02
2022-09-17T07:01:18.593Z,98148.06
2022-09-17T07:01:51.867Z,98146.55
2022-09-17T07:02:25.387Z,98144.80
2022-09-17T07:03:00.150Z,98143.92
2022-09-17T07:03:35.109Z,98146.27
2022-09-17T07:04:08.449Z,98147.99
2022-09-17T07:04:41.665Z,98147.34
2022-09-17T07:05:14.887Z,98153.23
2022-09-17T07:05:48.144Z,98151.33
2022-09-17T07:06:21.643Z,98153.84
2022-09-17T07:06:54.878Z,98153.52
2022-09-17T07:07:29.476Z,98150.91
2022-09-17T07:08:03.962Z,98151.73
2022-09-17T07:08:38.438Z,98152.30
2022-09-17T07:09:12.249Z,98150.11
2022-09-17T07:09:46.050Z,98153.46
2022-09-17T07:10:20.794Z,98154.98
2022-09-17T07:10:58.689Z,98155.36
2022-09-17T07:11:32.343Z,98156.55
2022-09-17T07:12:09.617Z,98162.27
2022-09-17T07:12:45.598Z,98162.14
2022-09-17T07:13:23.598Z,98160.73